Chronik & Geschichte

Boeing Stearman am Flugplatz Konstanz

Mit seiner 107-jährigen Geschichte ist Konstanz der älteste Verkehrslandeplatz Deutschlands. Lesen Sie unsere Festschrift zum 100-jährigen Platzjubiläum oder entdecken Sie die ausführliche Flugplatzchronik auf der Website der Initiative PRO Flugplatz Konstanz.

Live am Platz

Die Bilder unserer Webcams werden alle 5 Minuten aktualisiert.

Sonnenaufgang:

06:59 UTC / 07:59 Lokal

Sonnenuntergang:

16:10 UTC / 17:10 Lokal

METAR (22.01.2022 14:50 UTC):

EDNY 221450Z 11003KT 9999 BKN032 01/M01 Q1033
VFR

TAF (22.01.2022 11:00 UTC):

TAF EDNY 221100Z 2212/2312 VRB03KT 9999 BKN030 TEMPO 2212/2221 3500 -SNRA BKN012 PROB30 TEMPO 2304/2306 BKN012

Alle Angaben unverbindlich und ohne Gewähr. Zeiten genähert.

Für den Verkehrslandeplatz Konstanz werden keine offiziellen Wetterinformationen ausgegeben. Daher werden zur Orientierung Daten des nahegelegenen Flughafens Friedrichshafen dargestellt.

Das Landeentgelt kann bei uns auch mit aerops bezahlt werden. Die App für's Handy ist kostenfrei erhältlich.